Lodi Township, Michigan
Current Conditions -  °F | °C
As of 8:32 AM on Friday 24 Oct 2014 (Local Time) from KARB Reporting Station
Clear Clear  
Wind Chill: 30°   Ceiling: Unl
Heat Index: 30°   Visibility: 10mi
Dew Point: 28°   Wind: 0mph
Humidity: 92%   Direction: NA
Pressure: 30.08"   Gusts: NA
Location:  42.2601°N, 83.8448°W
Report Text: KARB 241232Z 00000KT 10SM CLR M01/M02 A3008 RMK AO2 T10111022
Loading
Personal Weather Stations






























Interactive Weather Map
Tropical Storm Tracking
New forecast layout! Learn more

10-Day Weather Forecast

Advertisements
Track Severe Weather on mobile